Time;durP1;ratioP1;P1;durP2;ratioP2;P2;SDS_P1;SDS_P2;PMS_P1;PMS_P2;Temp;Humidity;BMP_temperature;BMP_pressure;BME280_temperature;BME280_humidity;BME280_pressure;Samples;Min_cycle;Max_cycle;Signal;HPM_P1;HPM_P2
2022/06/15 00:01:22;;;;;;;1.17;0.90;;;21.90;49.70;;;;;;5037349;27;86397;-84
2022/06/15 00:03:49;;;;;;;4.13;1.00;;;21.90;49.70;;;;;;5059030;27;85988;-86
2022/06/15 00:06:20;;;;;;;1.02;0.90;;;21.90;49.80;;;;;;5043062;27;85469;-86
2022/06/15 00:08:51;;;;;;;2.50;1.33;;;21.90;49.90;;;;;;5060881;27;85789;-86
2022/06/15 00:11:21;;;;;;;1.88;1.00;;;21.90;49.60;;;;;;5059891;27;86869;-86
2022/06/15 00:13:58;;;;;;;1.50;1.10;;;21.90;49.60;;;;;;5061624;27;85699;-85
2022/06/15 00:16:24;;;;;;;2.90;1.27;;;21.90;49.80;;;;;;5061101;27;86298;-86
2022/06/15 00:18:50;;;;;;;2.40;1.25;;;21.90;49.70;;;;;;5061224;27;86216;-86
2022/06/15 00:21:17;;;;;;;1.60;0.90;;;21.90;49.70;;;;;;5062188;27;86432;-85
2022/06/15 00:23:43;;;;;;;1.65;1.00;;;21.90;49.60;;;;;;5051503;27;86590;-86
2022/06/15 00:26:09;;;;;;;3.13;1.67;;;21.90;49.60;;;;;;5042159;27;85682;-86
2022/06/15 00:28:36;;;;;;;1.50;1.10;;;21.90;49.70;;;;;;5041680;27;86054;-84
2022/06/15 00:31:02;;;;;;;1.30;0.88;;;21.90;49.70;;;;;;5040607;27;85669;-84
2022/06/15 00:33:28;;;;;;;2.30;1.30;;;21.90;49.60;;;;;;5033383;27;87041;-85
2022/06/15 00:36:00;;;;;;;1.42;1.05;;;21.90;49.70;;;;;;5040301;27;86121;-84
2022/06/15 00:38:42;;;;;;;2.00;1.27;;;21.90;49.60;;;;;;5040201;27;86420;-85
2022/06/15 00:41:15;;;;;;;1.48;1.15;;;21.90;49.60;;;;;;5051177;27;86900;-85
2022/06/15 00:43:45;;;;;;;1.77;1.02;;;21.90;49.60;;;;;;5043552;27;89557;-85
2022/06/15 00:46:25;;;;;;;2.10;1.10;;;21.90;49.70;;;;;;5040465;27;85728;-85
2022/06/15 00:49:00;;;;;;;1.63;1.02;;;21.90;49.90;;;;;;5040111;27;85711;-86
2022/06/15 00:51:27;;;;;;;1.55;1.02;;;21.90;49.80;;;;;;5040719;27;86379;-86
2022/06/15 00:53:54;;;;;;;1.00;0.88;;;21.90;49.90;;;;;;5040771;27;86050;-85
2022/06/15 00:56:21;;;;;;;1.08;0.90;;;21.90;50.00;;;;;;5047299;27;85651;-84
2022/06/15 00:58:50;;;;;;;1.50;1.10;;;21.90;50.00;;;;;;5060321;27;86014;-84
2022/06/15 01:01:16;;;;;;;1.67;1.40;;;21.90;50.00;;;;;;5059445;27;89177;-85
2022/06/15 01:03:51;;;;;;;2.30;1.10;;;21.90;50.80;;;;;;5058812;27;85975;-86
2022/06/15 01:06:43;;;;;;;1.45;0.95;;;21.90;50.20;;;;;;5039087;27;86301;-86
2022/06/15 01:09:18;;;;;;;2.03;1.15;;;21.90;50.20;;;;;;5005287;27;86325;-86
2022/06/15 01:11:51;;;;;;;1.52;1.30;;;21.90;50.10;;;;;;5052865;27;87099;-86
2022/06/15 01:14:32;;;;;;;1.90;1.15;;;21.90;50.10;;;;;;5035678;27;86198;-86
2022/06/15 01:17:26;;;;;;;1.83;1.20;;;21.90;50.50;;;;;;5041495;27;85783;-86
2022/06/15 01:20:14;;;;;;;1.75;1.17;;;21.90;50.40;;;;;;5041331;27;85414;-86
2022/06/15 01:22:58;;;;;;;2.05;1.08;;;21.90;50.30;;;;;;5035676;27;86857;-85
2022/06/15 01:25:56;;;;;;;1.50;1.00;;;21.90;50.30;;;;;;5044953;27;86542;-86
2022/06/15 01:29:09;;;;;;;1.55;0.90;;;21.90;50.50;;;;;;5034220;27;85769;-85
2022/06/15 01:31:49;;;;;;;1.20;1.10;;;21.90;50.40;;;;;;5052765;27;85689;-85
2022/06/15 01:34:27;;;;;;;1.60;1.10;;;21.90;50.50;;;;;;5040219;27;86465;-86
2022/06/15 01:36:58;;;;;;;1.30;0.80;;;21.90;50.50;;;;;;5040297;27;86507;-86
2022/06/15 01:39:35;;;;;;;1.40;1.10;;;21.90;50.60;;;;;;5040753;27;85570;-86
2022/06/15 01:42:20;;;;;;;2.25;1.00;;;21.90;50.60;;;;;;5041286;27;85745;-86
2022/06/15 01:44:52;;;;;;;1.33;0.93;;;21.90;50.60;;;;;;5036956;27;85593;-85
2022/06/15 01:47:22;;;;;;;1.70;1.23;;;21.90;50.60;;;;;;5039906;27;86083;-86
2022/06/15 01:50:05;;;;;;;1.73;1.20;;;21.90;50.60;;;;;;5039185;27;86079;-85
2022/06/15 01:52:49;;;;;;;1.58;1.00;;;21.90;50.70;;;;;;5039862;27;85950;-86
2022/06/15 01:55:20;;;;;;;2.33;1.10;;;21.90;50.60;;;;;;5034348;27;86662;-85
2022/06/15 01:57:50;;;;;;;1.30;1.00;;;21.90;50.80;;;;;;5055040;27;85984;-86
2022/06/15 02:00:17;;;;;;;1.40;1.10;;;21.90;50.70;;;;;;5060055;27;86099;-85
2022/06/15 02:03:17;;;;;;;2.53;1.10;;;21.90;50.70;;;;;;5052174;27;85976;-85
2022/06/15 02:06:00;;;;;;;1.92;1.10;;;21.90;50.70;;;;;;5038706;27;90627;-85
2022/06/15 02:09:03;;;;;;;1.35;0.82;;;21.90;50.80;;;;;;5042164;27;86147;-85
2022/06/15 02:11:45;;;;;;;1.42;1.02;;;21.90;50.90;;;;;;5059812;27;85674;-85
2022/06/15 02:14:23;;;;;;;1.13;0.85;;;21.90;50.80;;;;;;5034094;27;85615;-87
2022/06/15 02:17:09;;;;;;;2.03;1.02;;;21.90;51.00;;;;;;5036066;27;86380;-85
2022/06/15 02:19:43;;;;;;;0.80;0.80;;;21.90;50.90;;;;;;5039484;27;85681;-86
2022/06/15 02:22:17;;;;;;;1.38;1.00;;;21.90;50.90;;;;;;5033247;27;85900;-86
2022/06/15 02:24:47;;;;;;;1.55;1.10;;;21.90;51.00;;;;;;5053639;27;86035;-86
2022/06/15 02:27:14;;;;;;;1.45;0.88;;;21.80;51.00;;;;;;5059175;27;86152;-86
2022/06/15 02:29:42;;;;;;;1.25;0.95;;;21.90;51.20;;;;;;5059689;27;86378;-86
2022/06/15 02:32:12;;;;;;;1.95;0.95;;;21.90;51.20;;;;;;5059105;27;85712;-85
2022/06/15 02:34:38;;;;;;;1.95;1.17;;;21.90;51.20;;;;;;5059203;27;85634;-86
2022/06/15 02:37:05;;;;;;;1.38;0.90;;;21.90;51.30;;;;;;5059550;27;86305;-86
2022/06/15 02:39:31;;;;;;;1.00;0.88;;;21.90;51.30;;;;;;5038017;27;86093;-86
2022/06/15 02:41:59;;;;;;;1.63;1.02;;;21.80;51.10;;;;;;5039731;27;86248;-86
2022/06/15 02:44:27;;;;;;;1.20;1.02;;;21.80;51.00;;;;;;5039652;27;85946;-85
2022/06/15 02:46:54;;;;;;;1.38;0.90;;;21.80;51.20;;;;;;5038780;27;85622;-83
2022/06/15 02:49:19;;;;;;;2.17;0.95;;;21.80;51.10;;;;;;5042956;27;85888;-86
2022/06/15 02:51:59;;;;;;;1.45;1.02;;;21.80;51.20;;;;;;5043466;27;85870;-85
2022/06/15 02:54:32;;;;;;;1.30;0.98;;;21.80;51.20;;;;;;5041715;27;86069;-87
2022/06/15 02:56:58;;;;;;;1.35;1.02;;;21.80;51.40;;;;;;5042895;27;86107;-86
2022/06/15 02:59:24;;;;;;;0.85;0.80;;;21.80;51.30;;;;;;5058475;27;88982;-86
2022/06/15 03:01:50;;;;;;;0.80;0.80;;;21.80;51.30;;;;;;5062591;27;85619;-86
2022/06/15 03:04:15;;;;;;;0.88;0.80;;;21.80;51.40;;;;;;5062216;27;85956;-86
2022/06/15 03:06:41;;;;;;;0.82;0.80;;;21.80;51.30;;;;;;5062067;27;86620;-86
2022/06/15 03:09:07;;;;;;;1.25;0.88;;;21.80;51.30;;;;;;5062031;27;86444;-85
2022/06/15 03:11:33;;;;;;;1.30;0.82;;;21.80;51.40;;;;;;5062534;27;85616;-85
2022/06/15 03:13:58;;;;;;;1.40;0.90;;;21.80;51.40;;;;;;5061521;27;85662;-86
2022/06/15 03:16:24;;;;;;;1.02;0.80;;;21.80;51.40;;;;;;5048985;27;86284;-86
2022/06/15 03:18:49;;;;;;;1.05;0.95;;;21.80;51.50;;;;;;5042372;27;85952;-86
2022/06/15 03:21:15;;;;;;;1.55;0.90;;;21.80;51.60;;;;;;5041634;27;86001;-83
2022/06/15 03:23:42;;;;;;;1.63;1.10;;;21.80;51.50;;;;;;5043321;27;85567;-87
2022/06/15 03:26:07;;;;;;;1.20;1.10;;;21.80;51.60;;;;;;5042346;27;86502;-86
2022/06/15 03:28:34;;;;;;;1.65;1.35;;;21.80;51.60;;;;;;5041122;27;87581;-86
2022/06/15 03:31:00;;;;;;;1.13;0.90;;;21.80;51.50;;;;;;5043475;27;85592;-86
2022/06/15 03:33:26;;;;;;;1.23;1.13;;;21.80;51.60;;;;;;5047900;27;85713;-86
2022/06/15 03:35:51;;;;;;;1.15;0.90;;;21.80;51.60;;;;;;5061397;27;86608;-86
2022/06/15 03:38:20;;;;;;;0.88;0.80;;;21.80;51.50;;;;;;5061753;27;85984;-85
2022/06/15 03:40:48;;;;;;;1.15;1.02;;;21.80;51.40;;;;;;5060794;27;86317;-86
2022/06/15 03:43:15;;;;;;;1.70;1.08;;;21.80;51.60;;;;;;5062735;27;86059;-86
2022/06/15 03:45:44;;;;;;;0.95;0.90;;;21.80;51.70;;;;;;5061640;27;86528;-86
2022/06/15 03:48:11;;;;;;;1.63;1.10;;;21.80;51.60;;;;;;5053788;27;86376;-86
2022/06/15 03:50:37;;;;;;;0.80;0.80;;;21.80;51.70;;;;;;5042588;27;85589;-86
2022/06/15 03:53:04;;;;;;;1.38;1.00;;;21.80;51.50;;;;;;5041532;27;85672;-85
2022/06/15 03:55:30;;;;;;;1.08;0.98;;;21.80;51.60;;;;;;5042281;27;86339;-85
2022/06/15 03:57:57;;;;;;;0.73;0.70;;;21.80;51.70;;;;;;5040346;27;87135;-87
2022/06/15 04:00:24;;;;;;;1.40;0.93;;;21.80;51.80;;;;;;5042753;27;86060;-86
2022/06/15 04:02:50;;;;;;;1.30;0.80;;;21.80;51.60;;;;;;5044580;27;85702;-86
2022/06/15 04:05:19;;;;;;;1.08;0.90;;;21.80;51.60;;;;;;5042723;27;86885;-86
2022/06/15 04:10:29;;;;;;;1.45;1.00;;;21.80;51.70;;;;;;5043098;27;85708;-86
2022/06/15 04:12:54;;;;;;;1.23;1.00;;;21.80;51.70;;;;;;5050109;27;85592;-87
2022/06/15 04:15:20;;;;;;;1.20;1.00;;;21.80;51.60;;;;;;5042748;27;86664;-86
2022/06/15 04:17:46;;;;;;;1.20;0.95;;;21.80;51.90;;;;;;5042304;27;86159;-86
2022/06/15 04:20:32;;;;;;;1.00;0.80;;;21.80;51.80;;;;;;5042912;27;85589;-86
2022/06/15 04:23:03;;;;;;;1.17;0.90;;;21.80;51.70;;;;;;5042170;27;86047;-85
2022/06/15 04:25:30;;;;;;;1.05;0.88;;;21.80;51.90;;;;;;5042317;27;86466;-85
2022/06/15 04:27:57;;;;;;;0.80;0.80;;;21.80;51.80;;;;;;5059936;27;86156;-86
2022/06/15 04:30:23;;;;;;;1.38;1.02;;;21.80;51.90;;;;;;5057551;27;85579;-86
2022/06/15 04:32:57;;;;;;;1.52;0.80;;;21.80;51.80;;;;;;5046844;27;85648;-86
2022/06/15 04:35:23;;;;;;;1.42;0.85;;;21.80;51.90;;;;;;5054170;27;89982;-85
2022/06/15 04:37:49;;;;;;;1.10;1.00;;;21.80;51.80;;;;;;5041605;27;86245;-85
2022/06/15 04:40:15;;;;;;;1.02;0.80;;;21.90;51.90;;;;;;5040022;27;85768;-86
2022/06/15 04:42:42;;;;;;;2.92;1.15;;;21.90;52.10;;;;;;5040912;27;86087;-86
2022/06/15 04:45:09;;;;;;;1.45;1.10;;;21.90;52.20;;;;;;5043482;27;90158;-86
2022/06/15 04:47:35;;;;;;;1.17;1.02;;;21.90;52.30;;;;;;5192437;22;85869;-59
2022/06/15 04:50:01;;;;;;;1.23;1.00;;;21.90;52.20;;;;;;5039203;28;86226;-62
2022/06/15 04:52:29;;;;;;;1.00;0.80;;;21.90;51.90;;;;;;5040673;28;85899;-61
2022/06/15 04:54:57;;;;;;;1.47;0.80;;;21.90;51.80;;;;;;5040895;28;87171;-61
2022/06/15 04:57:28;;;;;;;1.35;1.10;;;21.90;51.80;;;;;;5040292;28;85697;-61
2022/06/15 04:59:54;;;;;;;1.17;1.00;;;21.90;51.90;;;;;;5040533;28;85710;-61
2022/06/15 05:02:25;;;;;;;1.00;0.80;;;21.90;52.00;;;;;;5042156;28;85594;-61
2022/06/15 05:04:51;;;;;;;0.82;0.82;;;21.90;51.90;;;;;;5041619;28;86778;-61
2022/06/15 05:07:17;;;;;;;0.80;0.70;;;21.90;51.90;;;;;;5041473;28;86355;-61
2022/06/15 05:09:47;;;;;;;0.88;0.80;;;21.90;52.10;;;;;;5041188;27;85558;-61
2022/06/15 05:12:13;;;;;;;0.95;0.93;;;21.90;52.10;;;;;;5039511;28;85622;-62
2022/06/15 05:14:39;;;;;;;1.02;0.90;;;21.90;52.30;;;;;;5041313;28;86800;-61
2022/06/15 05:17:05;;;;;;;2.70;0.80;;;22.00;52.10;;;;;;5041720;28;86168;-61
2022/06/15 05:19:33;;;;;;;8.00;1.30;;;22.00;52.20;;;;;;5042074;28;85634;-61
2022/06/15 05:22:01;;;;;;;3.10;1.70;;;22.00;52.20;;;;;;5040835;28;85672;-61
2022/06/15 05:24:26;;;;;;;7.40;3.45;;;22.00;51.40;;;;;;5040549;28;86752;-62
2022/06/15 05:26:52;;;;;;;7.13;2.90;;;21.90;51.00;;;;;;5041331;28;87403;-61
2022/06/15 05:29:20;;;;;;;4.32;2.75;;;21.90;50.90;;;;;;5041432;28;85606;-61
2022/06/15 05:31:46;;;;;;;8.48;2.70;;;21.90;50.80;;;;;;5041765;28;85700;-61
2022/06/15 05:34:12;;;;;;;5.78;2.63;;;21.90;51.00;;;;;;5024172;28;88427;-61
2022/06/15 05:36:40;;;;;;;7.47;2.60;;;21.90;51.00;;;;;;5022407;28;89787;-61
2022/06/15 05:39:06;;;;;;;5.93;2.20;;;21.90;51.10;;;;;;5041501;27;85693;-62
2022/06/15 05:41:32;;;;;;;5.20;2.50;;;21.90;51.10;;;;;;5041505;28;86382;-61
2022/06/15 05:46:50;;;;;;;26.33;16.08;;;21.90;51.50;;;;;;5040072;28;85707;-61
2022/06/15 05:49:15;;;;;;;18.73;10.48;;;21.90;51.50;;;;;;5039430;28;85980;-61
2022/06/15 05:51:41;;;;;;;47.17;29.73;;;21.90;51.20;;;;;;5020970;28;86504;-62
2022/06/15 05:54:11;;;;;;;21.10;12.30;;;21.90;51.30;;;;;;5038878;28;86708;-61
2022/06/15 05:56:39;;;;;;;63.33;35.92;;;21.90;51.00;;;;;;5039879;27;86474;-61
2022/06/15 05:59:14;;;;;;;24.02;12.50;;;21.90;51.70;;;;;;5040241;28;85852;-61
2022/06/15 06:01:42;;;;;;;23.23;10.32;;;21.90;51.10;;;;;;5040202;28;85691;-61
2022/06/15 06:04:12;;;;;;;21.75;10.98;;;21.90;51.30;;;;;;5039742;28;86974;-61
2022/06/15 06:06:37;;;;;;;;;;;21.90;51.30;;;;;;5022551;28;85842;-61
2022/06/15 06:09:03;;;;;;;15.85;5.95;;;21.90;51.40;;;;;;5043153;28;85567;-61
2022/06/15 06:11:29;;;;;;;11.60;5.15;;;21.90;50.90;;;;;;5040639;28;86636;-61
2022/06/15 06:13:55;;;;;;;11.48;5.22;;;21.90;50.90;;;;;;5041842;28;86857;-61
2022/06/15 06:16:21;;;;;;;12.80;4.40;;;21.90;51.60;;;;;;5041690;28;86374;-61
2022/06/15 06:18:47;;;;;;;10.13;4.22;;;21.90;50.80;;;;;;5041602;28;85601;-61
2022/06/15 06:21:15;;;;;;;9.23;4.20;;;21.80;50.80;;;;;;5044463;27;85780;-61
2022/06/15 06:23:41;;;;;;;12.35;4.70;;;21.80;50.90;;;;;;5045104;28;87076;-61
2022/06/15 06:26:17;;;;;;;12.52;4.70;;;21.80;51.00;;;;;;5044445;28;86674;-61
2022/06/15 06:28:43;;;;;;;15.68;4.25;;;21.80;50.90;;;;;;5044280;28;86277;-61
2022/06/15 06:31:11;;;;;;;12.38;3.85;;;21.80;51.20;;;;;;5037028;28;86674;-60
2022/06/15 06:33:37;;;;;;;10.80;4.95;;;21.80;51.10;;;;;;5042551;28;85711;-60
2022/06/15 06:36:07;;;;;;;15.68;4.75;;;21.80;51.10;;;;;;5043916;28;86503;-60
2022/06/15 06:38:33;;;;;;;18.67;5.07;;;21.80;51.20;;;;;;5044071;28;86134;-60
2022/06/15 06:41:00;;;;;;;9.25;4.18;;;21.80;51.50;;;;;;4997762;27;85765;-60
2022/06/15 06:43:26;;;;;;;14.52;4.35;;;21.80;51.60;;;;;;4996724;28;85951;-60
2022/06/15 06:45:52;;;;;;;17.42;5.03;;;21.80;51.70;;;;;;5002164;28;86431;-61
2022/06/15 06:48:18;;;;;;;8.88;3.75;;;21.80;51.80;;;;;;4992514;28;85980;-61
2022/06/15 06:50:43;;;;;;;9.52;3.53;;;21.80;51.80;;;;;;5002437;28;86046;-60
2022/06/15 06:53:11;;;;;;;15.68;5.15;;;21.80;51.70;;;;;;4994190;28;86004;-60
2022/06/15 06:55:40;;;;;;;11.45;4.18;;;21.80;51.80;;;;;;5000991;28;86260;-60
2022/06/15 06:58:06;;;;;;;110.85;20.65;;;21.80;51.80;;;;;;4996309;28;87771;-60
2022/06/15 07:00:36;;;;;;;76.18;17.92;;;21.80;51.90;;;;;;4999431;28;85604;-60
2022/06/15 07:03:05;;;;;;;45.67;11.30;;;21.90;51.80;;;;;;5002610;28;87070;-60
2022/06/15 07:05:35;;;;;;;45.93;10.80;;;21.90;52.10;;;;;;5001842;28;88116;-60
2022/06/15 07:08:02;;;;;;;39.33;9.00;;;21.90;52.20;;;;;;4994270;28;86860;-60
2022/06/15 07:10:27;;;;;;;35.97;7.97;;;21.90;52.40;;;;;;5002322;28;85786;-60
2022/06/15 07:12:54;;;;;;;25.17;6.45;;;21.90;52.50;;;;;;5002234;28;87139;-60
2022/06/15 07:15:20;;;;;;;23.23;6.68;;;21.90;52.50;;;;;;5001380;28;88980;-60
2022/06/15 07:17:48;;;;;;;16.38;5.70;;;21.90;52.70;;;;;;5002470;28;85738;-60
2022/06/15 07:20:14;;;;;;;37.75;7.53;;;21.90;53.00;;;;;;5003503;28;86212;-60
2022/06/15 07:22:40;;;;;;;27.73;7.10;;;21.90;53.10;;;;;;5002743;28;85911;-60
2022/06/15 07:25:09;;;;;;;18.48;5.28;;;21.90;52.80;;;;;;5002319;28;85742;-60
2022/06/15 07:27:39;;;;;;;23.02;6.57;;;21.90;53.10;;;;;;5003092;28;85601;-60
2022/06/15 07:30:09;;;;;;;27.15;5.65;;;21.90;53.30;;;;;;5001227;28;85791;-60
2022/06/15 07:35:22;;;;;;;19.60;5.68;;;22.00;53.50;;;;;;4984299;26;85681;-60
2022/06/15 07:37:51;;;;;;;17.52;4.95;;;21.90;53.50;;;;;;4993563;28;85714;-60
2022/06/15 07:40:21;;;;;;;19.70;5.32;;;21.90;53.50;;;;;;5001970;28;86163;-60
2022/06/15 07:42:51;;;;;;;13.38;4.53;;;21.90;53.70;;;;;;5002325;28;86833;-60
2022/06/15 07:45:23;;;;;;;14.55;4.35;;;21.90;53.70;;;;;;5002748;28;86255;-60
2022/06/15 07:50:33;;;;;;;11.95;4.28;;;22.00;53.70;;;;;;5002360;28;85502;-60
2022/06/15 07:53:02;;;;;;;13.30;4.60;;;21.90;53.70;;;;;;5002480;28;85912;-60
2022/06/15 07:55:32;;;;;;;12.95;4.22;;;21.90;53.70;;;;;;5002419;28;86120;-60
2022/06/15 07:57:58;;;;;;;17.05;4.43;;;21.90;53.60;;;;;;4999503;28;86225;-60
2022/06/15 08:00:24;;;;;;;12.80;3.97;;;21.90;53.70;;;;;;5000012;28;85975;-61
2022/06/15 08:02:53;;;;;;;11.68;3.88;;;21.90;53.70;;;;;;4999400;28;89692;-60
2022/06/15 08:05:21;;;;;;;13.60;3.38;;;21.90;53.80;;;;;;5000465;28;86010;-61
2022/06/15 08:07:49;;;;;;;15.48;3.40;;;21.90;53.80;;;;;;5001384;28;85593;-60
2022/06/15 08:10:17;;;;;;;14.30;3.47;;;21.90;53.80;;;;;;5002492;28;86050;-61
2022/06/15 08:12:44;;;;;;;16.38;3.97;;;22.00;53.80;;;;;;4999487;28;86244;-60
2022/06/15 08:15:11;;;;;;;10.23;3.55;;;22.00;53.90;;;;;;5002182;28;85911;-59
2022/06/15 08:17:45;;;;;;;12.80;3.83;;;22.00;54.30;;;;;;5002522;28;86755;-60
2022/06/15 08:20:26;;;;;;;8.85;3.03;;;22.00;54.50;;;;;;5001083;28;86310;-62
2022/06/15 08:22:55;;;;;;;12.52;3.25;;;22.00;54.30;;;;;;5001411;28;86428;-61
2022/06/15 08:25:25;;;;;;;12.45;3.42;;;22.00;54.40;;;;;;4998226;28;85579;-61
2022/06/15 08:27:52;;;;;;;13.25;3.22;;;22.10;55.00;;;;;;5001448;28;85886;-62
2022/06/15 08:30:18;;;;;;;16.23;3.72;;;22.00;54.90;;;;;;5001723;28;85655;-59
2022/06/15 08:32:44;;;;;;;11.38;3.50;;;22.00;54.90;;;;;;5001943;28;87351;-59
2022/06/15 08:35:11;;;;;;;9.95;3.33;;;22.00;55.00;;;;;;5001864;28;86153;-60
2022/06/15 08:37:36;;;;;;;8.32;3.10;;;22.00;55.20;;;;;;5001355;28;85586;-60
2022/06/15 08:40:04;;;;;;;18.63;4.05;;;22.00;55.30;;;;;;5001404;28;85484;-59
2022/06/15 08:42:29;;;;;;;9.02;3.53;;;22.00;55.30;;;;;;5001743;28;86890;-60
2022/06/15 08:45:16;;;;;;;9.00;3.33;;;22.00;55.20;;;;;;5000416;28;85912;-60
2022/06/15 08:47:53;;;;;;;10.90;3.92;;;22.00;55.40;;;;;;5001167;28;85901;-60
2022/06/15 08:50:19;;;;;;;18.60;3.65;;;22.00;55.40;;;;;;5001049;28;85979;-60
2022/06/15 08:53:19;;;;;;;10.80;3.70;;;22.00;55.30;;;;;;5000993;28;86810;-60
2022/06/15 08:55:56;;;;;;;11.65;3.15;;;22.00;55.30;;;;;;5001262;28;86384;-60
2022/06/15 08:58:34;;;;;;;8.77;3.45;;;22.00;55.40;;;;;;4999053;28;86718;-60
2022/06/15 09:01:09;;;;;;;17.48;3.95;;;22.00;55.30;;;;;;5001888;28;85830;-59
2022/06/15 09:03:42;;;;;;;13.30;4.65;;;22.00;55.50;;;;;;5001426;28;87146;-60
2022/06/15 09:06:32;;;;;;;11.80;3.78;;;22.00;55.50;;;;;;5001188;28;85746;-60
2022/06/15 09:09:22;;;;;;;9.43;3.30;;;22.00;55.50;;;;;;5001660;28;85946;-60
2022/06/15 09:15:21;;;;;;;12.50;3.58;;;22.00;55.20;;;;;;4970544;28;86941;-60
2022/06/15 09:17:50;;;;;;;6.72;3.17;;;22.00;55.20;;;;;;5001129;28;85740;-59
2022/06/15 09:20:18;;;;;;;;;;;22.00;55.20;;;;;;4980638;28;85657;-60
2022/06/15 09:22:52;;;;;;;11.07;3.53;;;22.00;55.20;;;;;;4999894;28;86303;-60
2022/06/15 09:25:28;;;;;;;7.78;3.03;;;22.10;55.20;;;;;;5000991;28;86680;-58
2022/06/15 09:28:01;;;;;;;12.00;2.72;;;22.10;54.90;;;;;;5001462;28;85785;-60
2022/06/15 09:30:32;;;;;;;9.32;2.90;;;22.00;54.70;;;;;;4996193;28;86044;-61
2022/06/15 09:33:16;;;;;;;10.23;2.95;;;22.00;54.70;;;;;;4991475;28;87805;-59
2022/06/15 09:35:56;;;;;;;5.88;2.30;;;22.10;54.80;;;;;;5000206;28;86751;-60
2022/06/15 09:38:24;;;;;;;4.18;2.72;;;22.10;54.50;;;;;;5000233;28;85847;-59
2022/06/15 09:41:13;;;;;;;12.40;2.83;;;22.10;54.30;;;;;;5001068;28;85728;-59
2022/06/15 09:43:54;;;;;;;;;;;22.10;54.30;;;;;;4994486;28;85880;-59
2022/06/15 09:46:25;;;;;;;9.05;3.63;;;22.10;54.50;;;;;;5001619;28;87004;-60
2022/06/15 09:49:08;;;;;;;5.70;2.70;;;22.10;53.90;;;;;;4981309;28;88733;-60
2022/06/15 09:51:39;;;;;;;9.73;2.80;;;22.10;54.00;;;;;;5000835;28;86967;-60
2022/06/15 09:54:19;;;;;;;7.22;2.67;;;22.10;54.30;;;;;;5001154;28;85655;-59
2022/06/15 09:56:49;;;;;;;7.07;3.00;;;22.10;54.20;;;;;;4981903;28;88749;-59
2022/06/15 09:59:20;;;;;;;9.52;2.80;;;22.00;53.90;;;;;;4999618;28;86177;-59
2022/06/15 10:01:47;;;;;;;7.05;3.10;;;22.00;54.20;;;;;;5000487;28;85867;-60
2022/06/15 10:04:20;;;;;;;5.85;2.80;;;22.10;54.30;;;;;;5000812;28;86183;-60
2022/06/15 10:06:49;;;;;;;9.63;3.03;;;22.10;54.20;;;;;;5000760;28;86827;-59
2022/06/15 10:09:21;;;;;;;6.05;3.00;;;22.10;54.30;;;;;;5000225;28;85759;-60
2022/06/15 10:11:53;;;;;;;11.63;3.10;;;22.10;54.10;;;;;;4999748;28;85629;-60
2022/06/15 10:14:19;;;;;;;7.40;2.55;;;22.10;54.30;;;;;;4999688;28;85712;-60
2022/06/15 10:17:15;;;;;;;6.78;2.72;;;22.10;54.00;;;;;;5000251;28;87312;-59
2022/06/15 10:19:47;;;;;;;7.18;2.83;;;22.10;53.90;;;;;;4990836;28;85982;-60
2022/06/15 10:22:24;;;;;;;6.88;2.80;;;22.10;54.00;;;;;;4999368;28;85666;-60
2022/06/15 10:24:50;;;;;;;9.35;3.08;;;22.10;53.80;;;;;;4999333;28;85995;-61
2022/06/15 10:27:32;;;;;;;8.32;2.42;;;22.10;53.60;;;;;;4998137;28;85915;-61
2022/06/15 10:30:07;;;;;;;7.85;2.75;;;22.10;53.80;;;;;;4997647;28;89409;-60
2022/06/15 10:32:34;;;;;;;8.45;2.50;;;22.10;53.80;;;;;;4999522;28;85896;-61
2022/06/15 10:35:02;;;;;;;13.20;3.05;;;22.10;53.90;;;;;;4999192;28;85517;-61
2022/06/15 10:37:50;;;;;;;8.33;2.73;;;22.20;54.30;;;;;;4998477;28;86178;-61
2022/06/15 10:40:23;;;;;;;11.88;3.00;;;22.20;54.30;;;;;;4991136;28;88181;-61
2022/06/15 10:43:18;;;;;;;14.07;3.08;;;22.20;54.50;;;;;;4998841;28;85598;-61
2022/06/15 10:45:58;;;;;;;7.68;2.70;;;22.20;54.90;;;;;;4997542;28;85863;-61
2022/06/15 10:48:39;;;;;;;10.68;2.90;;;22.20;55.50;;;;;;5000012;28;86021;-61
2022/06/15 10:51:08;;;;;;;10.93;3.40;;;22.20;54.70;;;;;;4991635;28;89973;-61
2022/06/15 10:53:42;;;;;;;16.05;3.30;;;22.20;54.80;;;;;;4998735;28;85615;-62
2022/06/15 11:02:18;;;;;;;8.13;2.83;;;22.20;54.70;;;;;;4990211;28;86996;-60
2022/06/15 11:04:46;;;;;;;12.27;3.40;;;22.20;54.50;;;;;;4998793;28;85860;-61
2022/06/15 11:07:16;;;;;;;10.60;3.17;;;22.20;54.40;;;;;;4994142;28;85871;-61
2022/06/15 11:10:02;;;;;;;8.40;3.05;;;22.20;54.60;;;;;;5002816;28;86227;-61
2022/06/15 11:12:43;;;;;;;10.23;2.58;;;22.20;54.30;;;;;;5001868;28;86645;-61
2022/06/15 11:15:14;;;;;;;13.07;3.65;;;22.20;54.20;;;;;;5001707;28;85666;-61
2022/06/15 11:20:24;;;;;;;6.93;2.55;;;22.10;54.20;;;;;;3194855;26;87683;-60
2022/06/15 11:22:54;;;;;;;12.82;3.03;;;22.10;54.40;;;;;;4981171;28;86122;-61
2022/06/15 11:25:25;;;;;;;9.85;3.15;;;22.10;54.40;;;;;;4982674;28;85638;-61
2022/06/15 11:28:00;;;;;;;11.23;2.72;;;22.10;54.60;;;;;;4983133;28;85578;-60
2022/06/15 11:30:39;;;;;;;9.20;2.97;;;22.10;54.60;;;;;;4983419;28;86833;-60
2022/06/15 11:33:11;;;;;;;;;;;22.10;54.60;;;;;;4979866;28;86513;-60
2022/06/15 11:35:58;;;;;;;9.55;2.90;;;22.10;54.60;;;;;;4984594;28;86171;-60
2022/06/15 11:38:52;;;;;;;10.60;3.47;;;22.10;54.30;;;;;;4983778;28;86249;-60
2022/06/15 11:41:20;;;;;;;13.18;2.60;;;22.10;54.60;;;;;;4978755;28;86417;-61
2022/06/15 11:43:50;;;;;;;7.97;2.47;;;22.20;54.60;;;;;;4978465;28;86415;-61
2022/06/15 11:46:40;;;;;;;7.70;2.60;;;22.20;54.60;;;;;;4959808;28;87701;-60
2022/06/15 11:49:12;;;;;;;9.73;3.15;;;22.20;54.80;;;;;;4979200;28;85971;-61
2022/06/15 11:51:53;;;;;;;9.07;3.17;;;22.20;54.70;;;;;;4978073;28;87048;-61
2022/06/15 11:54:58;;;;;;;10.80;3.30;;;22.20;55.00;;;;;;4975357;28;86508;-61
2022/06/15 11:58:01;;;;;;;8.20;2.92;;;22.20;55.10;;;;;;4978963;28;85687;-61
2022/06/15 12:00:37;;;;;;;8.95;2.85;;;22.20;55.30;;;;;;4980227;28;86744;-63
2022/06/15 12:03:19;;;;;;;13.52;2.95;;;22.20;55.40;;;;;;4962066;28;87992;-61
2022/06/15 12:05:46;;;;;;;19.48;3.42;;;22.20;55.50;;;;;;4975705;28;88781;-61
2022/06/15 12:08:35;;;;;;;9.32;2.88;;;22.20;55.70;;;;;;4980140;28;85849;-60
2022/06/15 12:14:35;;;;;;;14.50;2.55;;;22.20;55.60;;;;;;4979087;28;87267;-61
2022/06/15 12:17:33;;;;;;;15.77;2.80;;;22.20;55.40;;;;;;4981185;28;86187;-62
2022/06/15 12:20:18;;;;;;;10.73;2.90;;;22.20;55.50;;;;;;4964733;28;85806;-61
2022/06/15 12:22:56;;;;;;;11.48;2.70;;;22.20;55.40;;;;;;4976829;28;85607;-60
2022/06/15 12:25:32;;;;;;;5.43;2.90;;;22.20;55.40;;;;;;4960529;28;89096;-60
2022/06/15 12:28:24;;;;;;;11.25;3.05;;;22.20;55.40;;;;;;4977389;28;86533;-61
2022/06/15 12:31:00;;;;;;;6.63;2.65;;;22.20;55.70;;;;;;4975806;28;86322;-61
2022/06/15 12:33:56;;;;;;;10.05;3.00;;;22.20;55.60;;;;;;4958086;28;85881;-61
2022/06/15 12:36:34;;;;;;;13.55;3.08;;;22.20;56.20;;;;;;4979998;28;86390;-61
2022/06/15 12:39:11;;;;;;;9.38;2.95;;;22.20;56.60;;;;;;4978906;28;86284;-61
2022/06/15 12:44:30;;;;;;;15.50;3.67;;;22.20;57.50;;;;;;4978474;28;85955;-60
2022/06/15 12:46:58;;;;;;;12.18;3.20;;;22.20;57.60;;;;;;4977098;28;86631;-60
2022/06/15 12:49:35;;;;;;;11.18;3.10;;;22.20;58.10;;;;;;4978169;28;86545;-60
2022/06/15 12:52:10;;;;;;;9.02;2.53;;;22.20;57.60;;;;;;4973753;28;86969;-60
2022/06/15 12:54:49;;;;;;;4.38;1.98;;;22.20;56.70;;;;;;4976063;28;86086;-60
2022/06/15 12:57:44;;;;;;;5.68;2.30;;;22.20;55.90;;;;;;4960581;28;88218;-61
2022/06/15 13:00:11;;;;;;;7.18;2.70;;;22.20;55.20;;;;;;4976668;28;86000;-61
2022/06/15 13:02:59;;;;;;;5.65;2.88;;;22.30;55.50;;;;;;4976406;28;87104;-61
2022/06/15 13:05:29;;;;;;;11.68;2.78;;;22.20;55.20;;;;;;4976795;28;85945;-61
2022/06/15 13:08:16;;;;;;;11.98;3.13;;;22.20;55.50;;;;;;4973793;28;86875;-62
2022/06/15 13:10:53;;;;;;;15.32;2.70;;;22.30;55.70;;;;;;4973860;28;86578;-62
2022/06/15 13:13:29;;;;;;;25.67;3.10;;;22.30;56.60;;;;;;4972773;28;85971;-61
2022/06/15 13:15:59;;;;;;;15.93;2.88;;;22.30;56.60;;;;;;4961376;28;85479;-61
2022/06/15 13:18:46;;;;;;;9.65;2.83;;;22.30;56.40;;;;;;4979926;28;87082;-58
2022/06/15 13:21:15;;;;;;;11.77;2.97;;;22.30;56.80;;;;;;4979454;28;86419;-61
2022/06/15 13:23:45;;;;;;;9.97;2.83;;;22.30;56.70;;;;;;4979613;28;86231;-61
2022/06/15 13:26:10;;;;;;;12.02;3.53;;;22.30;56.70;;;;;;4979627;28;85797;-61
2022/06/15 13:29:04;;;;;;;9.65;3.05;;;22.30;56.60;;;;;;4979880;28;86887;-60
2022/06/15 13:31:44;;;;;;;13.18;3.00;;;22.30;56.80;;;;;;4978075;28;86539;-61
2022/06/15 13:34:14;;;;;;;15.48;3.28;;;22.30;56.40;;;;;;4977454;28;86151;-60
2022/06/15 13:37:03;;;;;;;8.48;2.72;;;22.30;56.20;;;;;;4980519;28;85724;-60
2022/06/15 13:39:46;;;;;;;12.35;2.92;;;22.30;56.10;;;;;;4980715;28;87778;-60